createdAt,value
2019-02-09T00:01:57.202Z,14.33
2019-02-09T00:04:26.887Z,15.77
2019-02-09T00:06:56.605Z,14.70
2019-02-09T00:09:26.586Z,15.67
2019-02-09T00:11:56.220Z,14.03
2019-02-09T00:14:26.033Z,13.90
2019-02-09T00:16:56.115Z,13.57
2019-02-09T00:19:26.037Z,14.10
2019-02-09T00:21:55.886Z,13.27
2019-02-09T00:24:25.924Z,15.00
2019-02-09T00:26:56.003Z,14.23
2019-02-09T00:29:25.658Z,15.50
2019-02-09T00:31:55.757Z,14.50
2019-02-09T00:34:25.829Z,13.33
2019-02-09T00:36:55.735Z,13.13
2019-02-09T00:39:25.500Z,14.77
2019-02-09T00:41:55.259Z,14.53
2019-02-09T00:44:25.134Z,13.93
2019-02-09T00:46:54.899Z,13.47
2019-02-09T00:49:24.659Z,14.27
2019-02-09T00:51:54.483Z,14.60
2019-02-09T00:54:24.454Z,15.27
2019-02-09T00:56:54.207Z,13.97
2019-02-09T00:59:24.121Z,13.33
2019-02-09T01:01:53.982Z,14.50
2019-02-09T01:04:23.942Z,14.00
2019-02-09T01:06:53.672Z,13.47
2019-02-09T01:09:23.633Z,15.23
2019-02-09T01:11:53.634Z,14.63
2019-02-09T01:14:23.515Z,14.10
2019-02-09T01:16:53.385Z,13.57
2019-02-09T01:19:23.241Z,15.57
2019-02-09T01:21:53.077Z,14.53
2019-02-09T01:24:22.923Z,14.53
2019-02-09T01:26:52.900Z,13.47
2019-02-09T01:29:22.705Z,14.80
2019-02-09T01:31:52.676Z,13.00
2019-02-09T01:34:22.445Z,14.43
2019-02-09T01:36:52.252Z,13.47
2019-02-09T01:39:22.256Z,13.60
2019-02-09T01:41:52.219Z,13.80
2019-02-09T01:44:22.032Z,13.17
2019-02-09T01:46:51.771Z,13.63
2019-02-09T01:49:21.543Z,13.90
2019-02-09T01:51:51.477Z,12.67
2019-02-09T01:54:21.286Z,13.67
2019-02-09T01:56:51.249Z,13.33
2019-02-09T01:59:21.008Z,14.23
2019-02-09T02:01:50.832Z,14.20
2019-02-09T02:04:20.947Z,14.87
2019-02-09T02:06:50.746Z,14.23
2019-02-09T02:09:20.678Z,13.33
2019-02-09T02:11:50.930Z,14.33
2019-02-09T02:14:20.696Z,14.83
2019-02-09T02:16:50.507Z,14.00
2019-02-09T02:19:20.177Z,14.30
2019-02-09T02:21:50.164Z,14.03
2019-02-09T02:24:20.066Z,14.30
2019-02-09T02:26:50.037Z,13.90
2019-02-09T02:29:20.021Z,13.33
2019-02-09T02:31:50.135Z,14.77
2019-02-09T02:34:20.064Z,14.27
2019-02-09T02:36:49.849Z,13.60
2019-02-09T02:39:19.683Z,14.93
2019-02-09T02:41:50.868Z,12.57
2019-02-09T02:44:20.628Z,13.40
2019-02-09T02:46:50.565Z,13.53
2019-02-09T02:49:20.527Z,14.03
2019-02-09T02:51:50.281Z,13.63
2019-02-09T02:54:21.103Z,13.13
2019-02-09T02:56:50.890Z,13.70
2019-02-09T02:59:20.576Z,13.90
2019-02-09T03:01:50.453Z,14.40
2019-02-09T03:04:20.356Z,15.83
2019-02-09T03:06:50.092Z,14.07
2019-02-09T03:09:20.016Z,15.67
2019-02-09T03:11:49.813Z,14.77
2019-02-09T03:14:19.876Z,14.30
2019-02-09T03:16:49.661Z,13.93
2019-02-09T03:19:19.629Z,14.03
2019-02-09T03:21:49.267Z,15.13
2019-02-09T03:24:18.987Z,16.07
2019-02-09T03:26:48.863Z,15.70
2019-02-09T03:29:18.624Z,15.50
2019-02-09T03:31:48.368Z,17.90
2019-02-09T03:34:18.091Z,16.50
2019-02-09T03:36:47.951Z,14.60
2019-02-09T03:39:17.787Z,15.57
2019-02-09T03:41:47.980Z,14.60
2019-02-09T03:44:17.797Z,15.03
2019-02-09T03:46:47.947Z,14.93
2019-02-09T03:49:17.895Z,14.40
2019-02-09T03:51:47.870Z,13.83
2019-02-09T03:54:17.678Z,15.83
2019-02-09T03:56:48.765Z,15.17
2019-02-09T03:59:18.536Z,15.33
2019-02-09T04:01:48.577Z,15.40
2019-02-09T04:04:18.425Z,14.43
2019-02-09T04:06:48.204Z,15.30
2019-02-09T04:09:17.922Z,13.60
2019-02-09T04:11:47.930Z,14.43
2019-02-09T04:14:17.652Z,13.70
2019-02-09T04:16:47.556Z,15.70
2019-02-09T04:19:17.533Z,13.67
2019-02-09T04:21:47.429Z,15.30
2019-02-09T04:24:17.403Z,14.83
2019-02-09T04:26:47.307Z,13.63
2019-02-09T04:29:17.298Z,15.60
2019-02-09T04:31:47.071Z,18.00
2019-02-09T04:34:16.863Z,16.57
2019-02-09T04:36:46.848Z,16.77
2019-02-09T04:39:16.531Z,15.63
2019-02-09T04:41:46.402Z,14.77
2019-02-09T04:44:16.190Z,15.10
2019-02-09T04:46:46.048Z,16.57
2019-02-09T04:49:15.861Z,13.77
2019-02-09T04:51:45.825Z,14.93
2019-02-09T04:54:15.580Z,15.17
2019-02-09T04:56:45.313Z,15.57
2019-02-09T04:59:15.216Z,15.03
2019-02-09T05:01:45.333Z,15.63
2019-02-09T05:04:15.142Z,15.03
2019-02-09T05:06:45.132Z,15.33
2019-02-09T05:09:14.976Z,15.97
2019-02-09T05:11:44.796Z,15.27
2019-02-09T05:14:14.669Z,15.97
2019-02-09T05:16:44.427Z,15.67
2019-02-09T05:19:14.220Z,16.73
2019-02-09T05:21:44.089Z,18.33
2019-02-09T05:24:13.752Z,23.60
2019-02-09T05:26:43.600Z,18.77
2019-02-09T05:29:13.562Z,22.40
2019-02-09T05:31:43.422Z,28.30
2019-02-09T05:34:13.222Z,35.27
2019-02-09T05:36:43.108Z,31.37
2019-02-09T05:39:12.818Z,46.47
2019-02-09T05:41:42.785Z,33.50
2019-02-09T05:44:12.586Z,20.90
2019-02-09T05:46:42.564Z,16.97
2019-02-09T05:49:12.213Z,18.67
2019-02-09T05:51:42.133Z,17.70
2019-02-09T05:54:11.984Z,17.77
2019-02-09T05:56:42.079Z,17.67
2019-02-09T05:59:12.199Z,16.90
2019-02-09T06:01:41.955Z,21.37
2019-02-09T06:04:11.828Z,20.63
2019-02-09T06:06:42.670Z,21.63
2019-02-09T06:09:12.527Z,19.20
2019-02-09T06:11:42.267Z,21.90
2019-02-09T06:14:12.310Z,22.50
2019-02-09T06:16:42.047Z,25.37
2019-02-09T06:19:11.834Z,25.33
2019-02-09T06:21:43.112Z,29.87
2019-02-09T06:24:12.790Z,27.80
2019-02-09T06:26:42.587Z,28.53
2019-02-09T06:29:13.674Z,27.10
2019-02-09T06:31:43.447Z,23.77
2019-02-09T06:34:13.290Z,23.57
2019-02-09T06:36:43.029Z,22.73
2019-02-09T06:39:12.735Z,22.67
2019-02-09T06:41:42.615Z,23.07
2019-02-09T06:44:12.412Z,21.80
2019-02-09T06:46:42.090Z,26.57
2019-02-09T06:49:11.995Z,26.77
2019-02-09T06:51:42.164Z,27.10
2019-02-09T06:54:12.006Z,27.37
2019-02-09T06:56:43.035Z,28.47
2019-02-09T06:59:12.760Z,29.07
2019-02-09T07:01:48.592Z,36.00
2019-02-09T07:04:14.259Z,33.23
2019-02-09T07:06:44.145Z,32.50
2019-02-09T07:09:14.071Z,33.97
2019-02-09T07:11:45.135Z,33.00
2019-02-09T07:14:14.805Z,33.13
2019-02-09T07:16:44.720Z,31.73
2019-02-09T07:19:14.488Z,30.87
2019-02-09T07:21:44.273Z,32.33
2019-02-09T07:24:14.257Z,30.67
2019-02-09T07:26:44.048Z,30.47
2019-02-09T07:29:13.811Z,30.03
2019-02-09T07:31:43.823Z,30.23
2019-02-09T07:34:13.608Z,28.50
2019-02-09T07:36:43.113Z,26.97
2019-02-09T07:39:12.874Z,27.20
2019-02-09T07:41:42.823Z,32.67
2019-02-09T07:44:12.469Z,30.57
2019-02-09T07:46:42.379Z,29.17
2019-02-09T07:49:13.486Z,27.73
2019-02-09T07:51:43.256Z,26.87
2019-02-09T07:54:13.160Z,25.43
2019-02-09T07:56:44.033Z,25.40
2019-02-09T07:59:13.839Z,22.47
2019-02-09T08:01:43.552Z,22.33
2019-02-09T08:04:13.283Z,23.00
2019-02-09T08:06:43.056Z,25.80
2019-02-09T08:09:13.814Z,22.10
2019-02-09T08:11:43.796Z,25.97
2019-02-09T08:14:13.433Z,24.00
2019-02-09T08:16:43.634Z,23.40
2019-02-09T08:19:13.533Z,24.10
2019-02-09T08:21:44.426Z,27.37
2019-02-09T08:24:14.217Z,19.93
2019-02-09T08:26:44.259Z,25.67
2019-02-09T08:29:15.393Z,21.23
2019-02-09T08:31:45.247Z,21.23
2019-02-09T08:34:15.008Z,23.33
2019-02-09T08:36:44.840Z,23.73
2019-02-09T08:39:15.894Z,25.63
2019-02-09T08:41:45.589Z,24.23
2019-02-09T08:44:15.388Z,24.40
2019-02-09T08:46:45.360Z,27.63
2019-02-09T08:49:15.343Z,25.37
2019-02-09T08:51:45.154Z,28.10
2019-02-09T08:54:15.105Z,32.17
2019-02-09T08:56:44.866Z,28.40
2019-02-09T08:59:14.695Z,26.77
2019-02-09T09:01:45.744Z,27.03
2019-02-09T09:04:15.505Z,31.60
2019-02-09T09:06:45.372Z,32.80
2019-02-09T09:09:15.182Z,23.17
2019-02-09T09:11:45.052Z,24.43
2019-02-09T09:14:14.697Z,57.80
2019-02-09T09:16:44.427Z,29.80
2019-02-09T09:19:14.394Z,27.87
2019-02-09T09:21:44.140Z,35.43
2019-02-09T09:24:14.060Z,30.33
2019-02-09T09:26:44.140Z,29.73
2019-02-09T09:29:13.880Z,27.83
2019-02-09T09:31:43.799Z,27.80
2019-02-09T09:34:15.190Z,25.03
2019-02-09T09:36:45.085Z,30.53
2019-02-09T09:39:15.045Z,23.90
2019-02-09T09:41:45.067Z,26.43
2019-02-09T09:44:14.948Z,24.77
2019-02-09T09:46:46.023Z,25.50
2019-02-09T09:49:16.104Z,24.37
2019-02-09T09:51:46.122Z,27.73
2019-02-09T09:54:17.174Z,24.10
2019-02-09T09:56:46.963Z,22.37
2019-02-09T09:59:16.905Z,26.83
2019-02-09T10:01:46.744Z,22.40
2019-02-09T10:04:16.931Z,22.53
2019-02-09T10:06:46.751Z,30.93
2019-02-09T10:09:16.712Z,19.93
2019-02-09T10:11:46.581Z,20.77
2019-02-09T10:14:16.515Z,19.77
2019-02-09T10:16:48.116Z,21.70
2019-02-09T10:19:18.163Z,48.93
2019-02-09T10:21:47.983Z,25.23
2019-02-09T10:24:17.837Z,21.17
2019-02-09T10:26:47.517Z,25.17
2019-02-09T10:29:17.326Z,23.20
2019-02-09T10:31:47.083Z,25.03
2019-02-09T10:34:16.948Z,26.80
2019-02-09T10:36:46.760Z,27.30
2019-02-09T10:39:16.628Z,26.83
2019-02-09T10:41:46.436Z,28.07
2019-02-09T10:44:16.452Z,29.03
2019-02-09T10:46:46.344Z,26.13
2019-02-09T10:49:16.036Z,23.83
2019-02-09T10:51:45.908Z,21.77
2019-02-09T10:54:15.662Z,23.13
2019-02-09T10:56:46.189Z,26.23
2019-02-09T10:59:16.190Z,23.73
2019-02-09T11:01:46.141Z,24.77
2019-02-09T11:04:16.261Z,26.60
2019-02-09T11:06:46.463Z,28.13
2019-02-09T11:09:22.061Z,37.40
2019-02-09T11:11:51.914Z,51.43
2019-02-09T11:14:21.652Z,49.57
2019-02-09T11:16:51.473Z,28.27
2019-02-09T11:19:21.319Z,25.70
2019-02-09T11:21:51.421Z,23.40
2019-02-09T11:24:21.213Z,21.70
2019-02-09T11:26:51.179Z,25.10
2019-02-09T11:29:20.950Z,22.30
2019-02-09T11:31:50.770Z,19.97
2019-02-09T11:34:20.524Z,21.63
2019-02-09T11:36:50.768Z,20.57
2019-02-09T11:39:20.638Z,18.87
2019-02-09T11:41:50.584Z,20.23
2019-02-09T11:44:20.439Z,19.60
2019-02-09T11:46:50.155Z,21.40
2019-02-09T11:49:21.038Z,28.70
2019-02-09T11:51:50.727Z,19.77
2019-02-09T11:54:20.621Z,21.67
2019-02-09T11:56:50.947Z,29.97
2019-02-09T11:59:21.363Z,21.47
2019-02-09T12:01:51.983Z,23.77
2019-02-09T12:04:21.887Z,23.43
2019-02-09T12:06:51.650Z,21.40
2019-02-09T12:09:21.467Z,22.50
2019-02-09T12:11:51.427Z,21.23
2019-02-09T12:14:21.318Z,21.83
2019-02-09T12:16:51.208Z,19.63
2019-02-09T12:19:23.751Z,20.50
2019-02-09T12:21:53.395Z,20.20
2019-02-09T12:24:23.219Z,19.00
2019-02-09T12:26:53.289Z,19.77
2019-02-09T12:29:22.854Z,18.47
2019-02-09T12:31:52.765Z,17.37
2019-02-09T12:34:23.829Z,19.77
2019-02-09T12:36:53.520Z,17.63
2019-02-09T12:39:23.329Z,25.27
2019-02-09T12:41:53.184Z,18.90
2019-02-09T12:44:22.962Z,18.87
2019-02-09T12:46:52.776Z,25.23
2019-02-09T12:49:22.726Z,23.87
2019-02-09T12:51:52.830Z,22.77
2019-02-09T12:54:22.567Z,16.83
2019-02-09T12:56:52.234Z,17.40
2019-02-09T12:59:22.040Z,16.93
2019-02-09T13:01:51.867Z,17.37
2019-02-09T13:04:21.735Z,16.23
2019-02-09T13:06:51.494Z,16.30
2019-02-09T13:09:21.835Z,15.97
2019-02-09T13:11:51.594Z,17.13
2019-02-09T13:14:21.504Z,16.00
2019-02-09T13:16:51.171Z,15.90
2019-02-09T13:19:20.978Z,16.70
2019-02-09T13:21:51.063Z,15.93
2019-02-09T13:24:21.111Z,14.57
2019-02-09T13:26:51.107Z,15.67
2019-02-09T13:29:20.937Z,14.97
2019-02-09T13:31:50.756Z,15.47
2019-02-09T13:34:20.619Z,17.27
2019-02-09T13:36:50.585Z,16.80
2019-02-09T13:39:21.709Z,16.43
2019-02-09T13:41:51.472Z,15.90
2019-02-09T13:44:22.629Z,14.53
2019-02-09T13:46:52.309Z,15.60
2019-02-09T13:49:21.933Z,15.70
2019-02-09T13:51:51.689Z,15.73
2019-02-09T13:54:21.772Z,16.83
2019-02-09T13:56:51.380Z,16.57
2019-02-09T13:59:22.325Z,16.70
2019-02-09T14:01:51.910Z,18.60
2019-02-09T14:04:21.829Z,18.00
2019-02-09T14:06:51.706Z,19.47
2019-02-09T14:09:21.509Z,18.23
2019-02-09T14:11:51.269Z,17.23
2019-02-09T14:14:21.237Z,18.93
2019-02-09T14:16:51.133Z,18.07
2019-02-09T14:19:22.190Z,17.57
2019-02-09T14:21:52.078Z,16.53
2019-02-09T14:24:21.998Z,17.47
2019-02-09T14:26:53.016Z,17.30
2019-02-09T14:29:22.637Z,19.03
2019-02-09T14:31:52.466Z,21.23
2019-02-09T14:34:22.538Z,20.70
2019-02-09T14:36:52.357Z,19.63
2019-02-09T14:39:22.332Z,20.23
2019-02-09T14:41:53.044Z,19.03
2019-02-09T14:44:22.895Z,21.33
2019-02-09T14:46:52.808Z,23.07
2019-02-09T14:49:22.611Z,19.87
2019-02-09T14:51:52.528Z,18.37
2019-02-09T14:54:22.460Z,21.93
2019-02-09T14:56:52.222Z,21.60
2019-02-09T14:59:21.966Z,17.63
2019-02-09T15:01:52.795Z,18.37
2019-02-09T15:04:22.498Z,18.97
2019-02-09T15:06:53.545Z,18.37
2019-02-09T15:09:23.816Z,18.90
2019-02-09T15:11:53.559Z,20.00
2019-02-09T15:14:23.328Z,20.23
2019-02-09T15:16:55.097Z,18.63
2019-02-09T15:19:31.954Z,19.43
2019-02-09T15:22:01.881Z,19.33
2019-02-09T15:24:31.881Z,19.70
2019-02-09T15:27:02.001Z,20.57
2019-02-09T15:29:32.368Z,19.43
2019-02-09T15:32:02.024Z,18.53
2019-02-09T15:34:31.849Z,19.77
2019-02-09T15:37:01.946Z,21.00
2019-02-09T15:39:31.661Z,21.40
2019-02-09T15:42:01.606Z,21.70
2019-02-09T15:44:32.794Z,26.97
2019-02-09T15:47:02.654Z,23.50
2019-02-09T15:49:32.461Z,24.47
2019-02-09T15:52:02.226Z,22.10
2019-02-09T15:54:31.897Z,22.83
2019-02-09T15:57:01.654Z,22.07
2019-02-09T15:59:31.540Z,22.83
2019-02-09T16:02:02.597Z,22.80
2019-02-09T16:04:32.601Z,19.57
2019-02-09T16:07:02.410Z,19.43
2019-02-09T16:09:32.366Z,19.50
2019-02-09T16:12:02.143Z,21.33
2019-02-09T16:14:32.075Z,19.63
2019-02-09T16:17:02.178Z,23.20
2019-02-09T16:19:31.989Z,22.10
2019-02-09T16:22:01.896Z,21.93
2019-02-09T16:24:32.159Z,20.63
2019-02-09T16:27:01.981Z,20.33
2019-02-09T16:29:31.984Z,21.47
2019-02-09T16:32:01.783Z,21.60
2019-02-09T16:34:31.926Z,22.07
2019-02-09T16:37:01.709Z,21.87
2019-02-09T16:39:31.528Z,22.10
2019-02-09T16:42:02.684Z,21.00
2019-02-09T16:44:32.666Z,19.80
2019-02-09T16:47:03.928Z,21.17
2019-02-09T16:49:33.872Z,20.37
2019-02-09T16:52:03.651Z,21.77
2019-02-09T16:54:33.495Z,20.57
2019-02-09T16:57:03.345Z,21.13
2019-02-09T16:59:33.114Z,20.43
2019-02-09T17:02:02.917Z,20.67
2019-02-09T17:04:33.386Z,20.73
2019-02-09T17:07:03.460Z,25.13
2019-02-09T17:09:33.482Z,22.17
2019-02-09T17:12:03.353Z,20.70
2019-02-09T17:14:33.109Z,23.30
2019-02-09T17:17:03.024Z,21.53
2019-02-09T17:19:32.887Z,19.83
2019-02-09T17:22:02.613Z,18.60
2019-02-09T17:24:32.381Z,20.47
2019-02-09T17:27:02.269Z,35.73
2019-02-09T17:29:31.998Z,21.07
2019-02-09T17:32:02.990Z,21.53
2019-02-09T17:34:32.754Z,21.03
2019-02-09T17:37:02.792Z,18.93
2019-02-09T17:39:32.848Z,18.80
2019-02-09T17:42:03.119Z,19.87
2019-02-09T17:44:33.035Z,19.53
2019-02-09T17:47:03.163Z,20.17
2019-02-09T17:49:33.009Z,21.03
2019-02-09T17:52:02.792Z,22.43
2019-02-09T17:54:32.515Z,21.30
2019-02-09T17:57:02.385Z,21.17
2019-02-09T17:59:32.142Z,19.93
2019-02-09T18:02:02.033Z,22.17
2019-02-09T18:04:31.797Z,22.77
2019-02-09T18:07:01.568Z,22.07
2019-02-09T18:09:32.762Z,20.03
2019-02-09T18:12:02.523Z,21.83
2019-02-09T18:14:32.340Z,21.00
2019-02-09T18:17:02.216Z,21.37
2019-02-09T18:19:31.983Z,23.23
2019-02-09T18:22:01.885Z,21.77
2019-02-09T18:24:31.851Z,21.13
2019-02-09T18:27:01.755Z,21.90
2019-02-09T18:29:31.431Z,21.77
2019-02-09T18:32:01.502Z,21.10
2019-02-09T18:34:31.390Z,21.33
2019-02-09T18:37:01.408Z,21.13
2019-02-09T18:39:31.520Z,20.17
2019-02-09T18:42:01.272Z,20.90
2019-02-09T18:44:31.053Z,22.07
2019-02-09T18:47:02.278Z,21.00
2019-02-09T18:49:32.046Z,20.80
2019-02-09T18:52:01.924Z,21.97
2019-02-09T18:54:31.786Z,21.83
2019-02-09T18:57:02.074Z,21.97
2019-02-09T18:59:31.760Z,21.90
2019-02-09T19:02:01.622Z,28.83
2019-02-09T19:04:31.389Z,23.13
2019-02-09T19:07:01.325Z,24.77
2019-02-09T19:09:31.292Z,22.07
2019-02-09T19:12:01.042Z,22.93
2019-02-09T19:14:30.846Z,22.10
2019-02-09T19:17:00.571Z,21.13
2019-02-09T19:19:30.602Z,20.70
2019-02-09T19:22:00.449Z,21.50
2019-02-09T19:24:30.666Z,20.43
2019-02-09T19:27:00.444Z,20.10
2019-02-09T19:29:30.486Z,18.53
2019-02-09T19:32:02.151Z,18.67
2019-02-09T19:34:31.943Z,18.90
2019-02-09T19:37:01.772Z,17.90
2019-02-09T19:39:32.909Z,19.17
2019-02-09T19:42:02.874Z,18.83
2019-02-09T19:44:32.671Z,18.50
2019-02-09T19:47:02.552Z,21.23
2019-02-09T19:49:32.358Z,19.17
2019-02-09T19:52:02.292Z,18.77
2019-02-09T19:54:32.243Z,18.63
2019-02-09T19:57:01.996Z,20.13
2019-02-09T19:59:31.814Z,20.37
2019-02-09T20:02:03.100Z,19.73
2019-02-09T20:04:32.888Z,18.43
2019-02-09T20:07:02.903Z,17.63
2019-02-09T20:09:32.636Z,18.67
2019-02-09T20:12:02.421Z,18.60
2019-02-09T20:14:32.194Z,17.10
2019-02-09T20:17:02.077Z,16.77
2019-02-09T20:19:31.859Z,17.97
2019-02-09T20:22:01.631Z,18.30
2019-02-09T20:24:31.511Z,16.43
2019-02-09T20:27:01.431Z,16.53
2019-02-09T20:29:32.506Z,16.50
2019-02-09T20:32:02.287Z,16.90
2019-02-09T20:34:31.983Z,18.33
2019-02-09T20:37:03.177Z,17.47
2019-02-09T20:39:33.161Z,19.37
2019-02-09T20:42:03.072Z,18.40
2019-02-09T20:44:33.045Z,18.27
2019-02-09T20:47:02.911Z,17.70
2019-02-09T20:49:32.813Z,16.87
2019-02-09T20:52:04.264Z,18.13
2019-02-09T20:54:34.405Z,18.93
2019-02-09T20:57:04.111Z,17.67
2019-02-09T20:59:33.986Z,22.33
2019-02-09T21:02:04.460Z,17.80
2019-02-09T21:04:34.372Z,18.23
2019-02-09T21:07:04.228Z,19.00
2019-02-09T21:09:34.163Z,18.73
2019-02-09T21:12:03.801Z,18.17
2019-02-09T21:14:33.682Z,19.13
2019-02-09T21:17:03.551Z,18.97
2019-02-09T21:19:33.497Z,17.67
2019-02-09T21:22:03.500Z,18.77
2019-02-09T21:24:33.397Z,18.90
2019-02-09T21:27:04.460Z,18.47
2019-02-09T21:29:34.251Z,18.77
2019-02-09T21:32:04.159Z,17.37
2019-02-09T21:34:34.152Z,18.53
2019-02-09T21:37:03.917Z,19.10
2019-02-09T21:39:34.184Z,20.67
2019-02-09T21:42:04.089Z,20.17
2019-02-09T21:44:34.075Z,21.50
2019-02-09T21:47:04.072Z,22.13
2019-02-09T21:49:33.965Z,22.40
2019-02-09T21:52:03.921Z,23.93
2019-02-09T21:54:33.830Z,22.07
2019-02-09T21:57:03.666Z,22.40
2019-02-09T21:59:33.459Z,21.23
2019-02-09T22:02:03.270Z,23.50
2019-02-09T22:04:33.337Z,21.97
2019-02-09T22:07:03.199Z,22.27
2019-02-09T22:09:33.034Z,23.53
2019-02-09T22:12:02.919Z,22.80
2019-02-09T22:14:32.642Z,20.97
2019-02-09T22:17:02.259Z,20.70
2019-02-09T22:19:32.079Z,21.80
2019-02-09T22:22:02.089Z,21.57
2019-02-09T22:24:32.122Z,21.60
2019-02-09T22:27:02.024Z,23.47
2019-02-09T22:29:32.228Z,21.43
2019-02-09T22:32:02.077Z,23.77
2019-02-09T22:34:31.876Z,24.53
2019-02-09T22:37:01.603Z,25.20
2019-02-09T22:39:31.444Z,26.70
2019-02-09T22:42:01.410Z,25.27
2019-02-09T22:44:31.362Z,25.27
2019-02-09T22:47:01.152Z,24.23
2019-02-09T22:49:31.052Z,24.37
2019-02-09T22:52:00.865Z,24.87
2019-02-09T22:54:30.609Z,24.77
2019-02-09T22:57:00.407Z,25.33
2019-02-09T22:59:30.571Z,28.90
2019-02-09T23:02:00.661Z,33.00
2019-02-09T23:05:17.133Z,34.10
2019-02-09T23:07:47.070Z,34.93
2019-02-09T23:10:17.010Z,39.33
2019-02-09T23:12:48.537Z,41.37
2019-02-09T23:15:18.351Z,41.17
2019-02-09T23:17:48.115Z,43.07
2019-02-09T23:20:18.924Z,42.60
2019-02-09T23:22:48.720Z,40.17
2019-02-09T23:25:18.583Z,42.13
2019-02-09T23:27:48.498Z,37.07
2019-02-09T23:30:18.389Z,37.33
2019-02-09T23:32:48.398Z,34.03
2019-02-09T23:35:18.207Z,29.83
2019-02-09T23:37:48.049Z,29.77
2019-02-09T23:40:17.873Z,30.37
2019-02-09T23:42:47.552Z,30.33
2019-02-09T23:45:17.357Z,29.77
2019-02-09T23:47:48.675Z,25.63
2019-02-09T23:50:18.438Z,24.53
2019-02-09T23:52:48.342Z,27.13
2019-02-09T23:55:18.300Z,26.67
2019-02-09T23:57:48.497Z,26.43
